createdAt,value
2022-11-26T00:01:28.288Z,158.90
2022-11-26T00:03:57.801Z,167.10
2022-11-26T00:06:44.997Z,145.20
2022-11-26T00:09:25.071Z,128.00
2022-11-26T00:11:53.218Z,142.40
2022-11-26T00:14:21.436Z,143.40
2022-11-26T00:16:50.440Z,138.10
2022-11-26T00:19:18.715Z,133.80
2022-11-26T00:21:46.844Z,138.40
2022-11-26T00:24:28.293Z,134.30
2022-11-26T00:26:58.949Z,125.50
2022-11-26T00:29:27.156Z,129.50
2022-11-26T00:31:55.380Z,134.40
2022-11-26T00:34:23.536Z,141.70
2022-11-26T00:36:51.736Z,135.10
2022-11-26T00:39:24.838Z,133.10
2022-11-26T00:41:53.675Z,135.60
2022-11-26T00:44:25.063Z,140.00
2022-11-26T00:46:53.235Z,138.50
2022-11-26T00:49:21.571Z,137.40
2022-11-26T00:51:49.828Z,135.60
2022-11-26T00:54:19.807Z,137.80
2022-11-26T00:56:48.775Z,135.20
2022-11-26T00:59:22.312Z,138.60
2022-11-26T01:01:51.212Z,136.40
2022-11-26T01:04:19.287Z,136.90
2022-11-26T01:06:47.570Z,126.50
2022-11-26T01:09:22.398Z,127.10
2022-11-26T01:11:54.078Z,124.80
2022-11-26T01:14:23.615Z,130.60
2022-11-26T01:16:53.820Z,131.80
2022-11-26T01:19:22.067Z,131.50
2022-11-26T01:21:50.290Z,129.30
2022-11-26T01:24:18.175Z,125.50
2022-11-26T01:26:46.420Z,123.40
2022-11-26T01:29:20.049Z,122.90
2022-11-26T01:31:48.619Z,122.30
2022-11-26T01:34:16.937Z,126.70
2022-11-26T01:36:45.192Z,123.30
2022-11-26T01:39:20.436Z,128.70
2022-11-26T01:42:26.208Z,123.90
2022-11-26T01:44:54.211Z,124.40
2022-11-26T01:47:30.598Z,130.30
2022-11-26T01:50:26.755Z,131.10
2022-11-26T01:53:03.040Z,122.30
2022-11-26T01:55:45.283Z,131.30
2022-11-26T01:58:20.518Z,128.80
2022-11-26T02:00:56.083Z,138.50
2022-11-26T02:03:25.096Z,130.00
2022-11-26T02:05:59.611Z,130.70
2022-11-26T02:08:30.410Z,133.00
2022-11-26T02:10:58.566Z,124.80
2022-11-26T02:13:27.192Z,121.60
2022-11-26T02:16:04.976Z,127.80
2022-11-26T02:18:42.222Z,139.30
2022-11-26T02:21:21.215Z,129.90
2022-11-26T02:24:13.872Z,135.00
2022-11-26T02:26:54.106Z,124.20
2022-11-26T02:29:41.067Z,125.60
2022-11-26T02:32:22.775Z,135.20
2022-11-26T02:34:59.250Z,134.70
2022-11-26T02:37:37.350Z,139.80
2022-11-26T02:40:08.937Z,136.30
2022-11-26T02:42:37.194Z,134.80
2022-11-26T02:45:32.024Z,134.00
2022-11-26T02:48:03.231Z,137.60
2022-11-26T02:50:37.266Z,133.10
2022-11-26T02:53:07.546Z,130.70
2022-11-26T02:55:40.597Z,140.10
2022-11-26T02:58:09.230Z,130.80
2022-11-26T03:00:41.664Z,137.20
2022-11-26T03:03:27.457Z,127.10
2022-11-26T03:06:01.587Z,125.50
2022-11-26T03:08:32.191Z,115.50
2022-11-26T03:11:00.384Z,122.10
2022-11-26T03:13:28.867Z,123.00
2022-11-26T03:15:57.218Z,121.90
2022-11-26T03:18:25.574Z,124.50
2022-11-26T03:20:53.839Z,127.30
2022-11-26T03:23:22.040Z,127.90
2022-11-26T03:25:50.200Z,127.80
2022-11-26T03:28:18.804Z,124.70
2022-11-26T03:30:50.339Z,129.60
2022-11-26T03:33:18.983Z,125.10
2022-11-26T03:35:50.201Z,129.00
2022-11-26T03:38:18.579Z,139.20
2022-11-26T03:40:55.320Z,136.30
2022-11-26T03:43:23.775Z,132.10
2022-11-26T03:45:52.034Z,131.00
2022-11-26T03:48:20.599Z,128.30
2022-11-26T03:50:49.003Z,127.10
2022-11-26T03:53:17.321Z,132.50
2022-11-26T03:55:45.754Z,130.60
2022-11-26T03:58:14.014Z,128.70
2022-11-26T04:00:42.287Z,129.90
2022-11-26T04:03:10.561Z,125.10
2022-11-26T04:05:38.820Z,126.70
2022-11-26T04:08:07.787Z,121.10
2022-11-26T04:10:35.986Z,105.80
2022-11-26T04:13:04.213Z,116.90
2022-11-26T04:15:32.557Z,118.10
2022-11-26T04:18:00.560Z,107.90
2022-11-26T04:20:28.779Z,102.60
2022-11-26T04:22:56.979Z,115.10
2022-11-26T04:25:25.087Z,111.80
2022-11-26T04:27:53.150Z,114.40
2022-11-26T04:30:21.311Z,108.70
2022-11-26T04:32:49.952Z,110.30
2022-11-26T04:35:18.307Z,108.80
2022-11-26T04:37:46.586Z,117.20
2022-11-26T04:40:14.777Z,117.80
2022-11-26T04:42:43.032Z,107.70
2022-11-26T04:45:11.869Z,106.40
2022-11-26T04:47:42.874Z,119.20
2022-11-26T04:50:12.492Z,113.30
2022-11-26T04:52:40.540Z,107.90
2022-11-26T04:55:09.091Z,105.90
2022-11-26T04:57:37.421Z,102.90
2022-11-26T05:00:10.087Z,116.90
2022-11-26T05:02:38.394Z,105.30
2022-11-26T05:05:07.157Z,113.30
2022-11-26T05:07:35.867Z,108.30
2022-11-26T05:10:05.840Z,105.30
2022-11-26T05:12:34.931Z,111.90
2022-11-26T05:15:04.444Z,107.10
2022-11-26T05:17:32.998Z,105.60
2022-11-26T05:20:01.156Z,111.30
2022-11-26T05:22:29.320Z,113.40
2022-11-26T05:24:57.479Z,109.20
2022-11-26T05:27:25.625Z,101.40
2022-11-26T05:29:53.760Z,108.90
2022-11-26T05:32:21.952Z,107.30
2022-11-26T05:34:50.188Z,99.40
2022-11-26T05:37:18.397Z,104.80
2022-11-26T05:39:46.580Z,95.90
2022-11-26T05:42:15.566Z,102.90
2022-11-26T05:44:43.760Z,98.40
2022-11-26T05:47:11.920Z,82.80
2022-11-26T05:49:39.840Z,80.80
2022-11-26T05:52:07.977Z,86.10
2022-11-26T05:54:36.367Z,86.70
2022-11-26T05:57:04.740Z,79.80
2022-11-26T05:59:32.911Z,81.80
2022-11-26T06:02:01.085Z,73.80
2022-11-26T06:04:29.557Z,78.10
2022-11-26T06:06:57.700Z,74.10
2022-11-26T06:09:25.846Z,73.40
2022-11-26T06:11:54.606Z,74.20
2022-11-26T06:14:23.147Z,73.50
2022-11-26T06:16:51.409Z,76.80
2022-11-26T06:19:19.862Z,71.50
2022-11-26T06:21:48.034Z,72.70
2022-11-26T06:24:16.222Z,70.20
2022-11-26T06:26:44.479Z,67.90
2022-11-26T06:29:13.284Z,67.70
2022-11-26T06:31:41.523Z,66.90
2022-11-26T06:34:09.697Z,63.00
2022-11-26T06:36:37.896Z,59.50
2022-11-26T06:39:06.225Z,61.50
2022-11-26T06:41:34.572Z,58.20
2022-11-26T06:44:03.596Z,54.90
2022-11-26T06:46:35.387Z,55.90
2022-11-26T06:49:05.257Z,54.30
2022-11-26T06:51:34.155Z,53.80
2022-11-26T06:54:02.641Z,53.20
2022-11-26T06:56:30.839Z,52.00
2022-11-26T06:58:59.059Z,49.70
2022-11-26T07:01:27.456Z,49.50
2022-11-26T07:03:56.016Z,50.20
2022-11-26T07:06:26.637Z,45.20
2022-11-26T07:08:56.939Z,48.60
2022-11-26T07:11:26.225Z,46.00
2022-11-26T07:13:54.795Z,47.70
2022-11-26T07:16:22.894Z,48.60
2022-11-26T07:18:57.739Z,49.90
2022-11-26T07:21:29.460Z,48.20
2022-11-26T07:23:59.172Z,47.10
2022-11-26T07:26:27.325Z,44.30
2022-11-26T07:28:55.476Z,47.60
2022-11-26T07:31:24.673Z,45.90
2022-11-26T07:33:52.845Z,47.30
2022-11-26T07:36:24.546Z,45.10
2022-11-26T07:38:58.815Z,46.30
2022-11-26T07:41:28.647Z,46.80
2022-11-26T07:43:57.116Z,45.40
2022-11-26T07:46:26.925Z,44.40
2022-11-26T07:48:56.878Z,43.60
2022-11-26T07:51:28.408Z,43.60
2022-11-26T07:53:58.926Z,43.80
2022-11-26T07:56:27.527Z,44.20
2022-11-26T07:58:55.689Z,44.80
2022-11-26T08:01:30.500Z,44.00
2022-11-26T08:04:01.157Z,44.00
2022-11-26T08:06:30.582Z,44.80
2022-11-26T08:09:00.586Z,43.70
2022-11-26T08:11:32.439Z,43.10
2022-11-26T08:14:03.609Z,42.30
2022-11-26T08:16:32.959Z,42.60
2022-11-26T08:19:08.272Z,44.20
2022-11-26T08:21:36.658Z,43.70
2022-11-26T08:24:05.232Z,42.10
2022-11-26T08:26:38.404Z,42.80
2022-11-26T08:29:11.152Z,41.50
2022-11-26T08:31:45.659Z,41.40
2022-11-26T08:34:16.318Z,42.60
2022-11-26T08:36:46.335Z,43.60
2022-11-26T08:39:19.077Z,46.00
2022-11-26T08:41:52.010Z,44.40
2022-11-26T08:44:21.620Z,45.80
2022-11-26T08:46:50.701Z,44.40
2022-11-26T08:49:18.916Z,43.80
2022-11-26T08:51:47.247Z,44.00
2022-11-26T08:54:15.757Z,45.20
2022-11-26T08:56:44.020Z,45.60
2022-11-26T08:59:12.318Z,45.90
2022-11-26T09:01:40.765Z,43.40
2022-11-26T09:04:09.106Z,42.50
2022-11-26T09:06:37.231Z,41.70
2022-11-26T09:09:15.450Z,42.50
2022-11-26T09:11:51.786Z,40.80
2022-11-26T09:14:23.028Z,43.00
2022-11-26T09:16:51.849Z,43.10
2022-11-26T09:19:20.818Z,43.00
2022-11-26T09:21:53.138Z,44.20
2022-11-26T09:24:21.643Z,42.30
2022-11-26T09:26:50.479Z,42.20
2022-11-26T09:29:21.380Z,39.70
2022-11-26T09:34:39.949Z,41.50
2022-11-26T09:37:08.779Z,40.00
2022-11-26T09:39:36.951Z,38.50
2022-11-26T09:42:14.038Z,37.80
2022-11-26T09:45:03.170Z,36.70
2022-11-26T09:47:37.256Z,39.40
2022-11-26T09:50:11.217Z,36.10
2022-11-26T09:52:51.289Z,35.40
2022-11-26T09:55:22.511Z,34.30
2022-11-26T09:58:25.330Z,33.70
2022-11-26T10:00:59.304Z,33.60
2022-11-26T10:03:30.109Z,34.80
2022-11-26T10:06:09.079Z,34.60
2022-11-26T10:09:14.143Z,34.10
2022-11-26T10:12:25.497Z,33.80
2022-11-26T10:15:10.815Z,34.10
2022-11-26T10:18:08.096Z,33.00
2022-11-26T10:20:49.860Z,34.20
2022-11-26T10:23:25.867Z,33.70
2022-11-26T10:26:06.262Z,34.50
2022-11-26T10:28:43.686Z,33.90
2022-11-26T10:31:26.918Z,33.20
2022-11-26T10:34:03.798Z,34.90
2022-11-26T10:36:39.658Z,35.20
2022-11-26T10:39:15.658Z,37.30
2022-11-26T10:41:44.469Z,37.90
2022-11-26T10:44:29.744Z,40.80
2022-11-26T10:46:59.608Z,39.10
2022-11-26T10:49:30.367Z,39.30
2022-11-26T10:52:02.036Z,37.80
2022-11-26T10:54:34.987Z,35.60
2022-11-26T10:57:09.055Z,36.00
2022-11-26T10:59:57.069Z,37.10
2022-11-26T11:02:39.342Z,39.30
2022-11-26T11:05:10.156Z,35.40
2022-11-26T11:07:38.469Z,37.40
2022-11-26T11:10:09.497Z,40.40
2022-11-26T11:12:42.378Z,36.70
2022-11-26T11:15:45.791Z,37.30
2022-11-26T11:18:23.350Z,35.50
2022-11-26T11:20:57.084Z,38.00
2022-11-26T11:24:00.263Z,34.30
2022-11-26T11:26:23.847Z,33.60
2022-11-26T11:28:55.094Z,32.10
2022-11-26T11:31:44.987Z,33.30
2022-11-26T11:34:20.616Z,33.40
2022-11-26T11:37:16.480Z,33.90
2022-11-26T11:39:45.458Z,31.80
2022-11-26T11:42:29.511Z,31.80
2022-11-26T11:45:00.584Z,31.00
2022-11-26T11:47:37.083Z,30.60
2022-11-26T11:50:24.147Z,30.70
2022-11-26T11:53:04.536Z,30.80
2022-11-26T11:55:32.917Z,31.10
2022-11-26T11:58:13.768Z,31.70
2022-11-26T12:01:03.482Z,33.20
2022-11-26T12:03:50.680Z,34.00
2022-11-26T12:06:19.281Z,33.30
2022-11-26T12:09:05.968Z,33.10
2022-11-26T12:11:54.474Z,33.70
2022-11-26T12:14:41.823Z,35.70
2022-11-26T12:17:36.359Z,34.90
2022-11-26T12:20:28.239Z,35.80
2022-11-26T12:23:08.068Z,34.70
2022-11-26T12:25:40.241Z,34.80
2022-11-26T12:28:18.572Z,34.70
2022-11-26T12:31:08.496Z,32.30
2022-11-26T12:33:47.239Z,33.90
2022-11-26T12:36:57.343Z,35.20
2022-11-26T12:39:53.915Z,35.10
2022-11-26T12:42:32.416Z,36.20
2022-11-26T12:45:17.890Z,35.20
2022-11-26T12:48:03.250Z,34.40
2022-11-26T12:50:59.255Z,35.50
2022-11-26T12:53:34.484Z,36.50
2022-11-26T12:56:11.117Z,36.30
2022-11-26T12:59:15.105Z,35.60
2022-11-26T13:01:43.577Z,35.20
2022-11-26T13:04:36.616Z,33.70
2022-11-26T13:07:19.572Z,34.00
2022-11-26T13:10:10.782Z,33.70
2022-11-26T13:13:02.520Z,34.80
2022-11-26T13:15:36.476Z,35.50
2022-11-26T13:18:18.254Z,35.40
2022-11-26T13:20:46.576Z,36.70
2022-11-26T13:23:34.238Z,38.00
2022-11-26T13:26:28.880Z,38.30
2022-11-26T13:29:20.602Z,35.70
2022-11-26T13:32:15.306Z,39.10
2022-11-26T13:35:01.995Z,38.10
2022-11-26T13:38:08.055Z,35.90
2022-11-26T13:41:00.934Z,35.20
2022-11-26T13:44:16.224Z,34.70
2022-11-26T13:47:16.926Z,33.80
2022-11-26T13:49:55.154Z,34.90
2022-11-26T13:52:26.023Z,35.30
2022-11-26T13:55:30.740Z,34.80
2022-11-26T13:58:16.962Z,33.70
2022-11-26T14:00:45.298Z,32.50
2022-11-26T14:03:48.238Z,34.00
2022-11-26T14:06:16.475Z,35.40
2022-11-26T14:09:03.652Z,35.60
2022-11-26T14:11:40.782Z,34.30
2022-11-26T14:14:35.424Z,35.50
2022-11-26T14:17:31.110Z,34.00
2022-11-26T14:20:06.522Z,34.70
2022-11-26T14:22:36.855Z,35.30
2022-11-26T14:25:19.807Z,35.80
2022-11-26T14:27:57.593Z,36.50
2022-11-26T14:30:28.836Z,33.80
2022-11-26T14:33:05.838Z,36.10
2022-11-26T14:35:38.017Z,36.30
2022-11-26T14:38:24.845Z,37.10
2022-11-26T14:40:59.268Z,37.90
2022-11-26T14:43:33.194Z,36.80
2022-11-26T14:46:15.192Z,36.70
2022-11-26T14:49:06.025Z,35.00
2022-11-26T14:51:35.849Z,35.80
2022-11-26T14:54:18.053Z,35.60
2022-11-26T14:56:48.846Z,36.20
2022-11-26T14:59:19.004Z,35.40
2022-11-26T15:01:52.944Z,36.00
2022-11-26T15:04:24.153Z,36.50
2022-11-26T15:06:54.777Z,37.00
2022-11-26T15:09:26.567Z,37.40
2022-11-26T15:12:16.425Z,36.70
2022-11-26T15:14:48.764Z,38.40
2022-11-26T15:17:21.012Z,38.00
2022-11-26T15:19:56.786Z,38.80
2022-11-26T15:22:34.589Z,36.60
2022-11-26T15:25:03.446Z,37.20
2022-11-26T15:27:38.210Z,34.50
2022-11-26T15:30:34.373Z,35.30
2022-11-26T15:33:34.375Z,34.10
2022-11-26T15:36:04.519Z,35.40
2022-11-26T15:38:38.986Z,35.10
2022-11-26T15:41:14.417Z,35.90
2022-11-26T15:43:46.320Z,35.20
2022-11-26T15:46:22.541Z,36.90
2022-11-26T15:48:53.917Z,36.60
2022-11-26T15:51:37.536Z,38.20
2022-11-26T15:54:18.283Z,37.90
2022-11-26T15:56:56.127Z,35.90
2022-11-26T15:59:40.865Z,36.90
2022-11-26T16:02:28.602Z,37.70
2022-11-26T16:05:20.745Z,35.60
2022-11-26T16:08:21.772Z,37.50
2022-11-26T16:11:03.005Z,37.90
2022-11-26T16:13:51.636Z,38.00
2022-11-26T16:16:23.435Z,38.70
2022-11-26T16:18:59.841Z,39.10
2022-11-26T16:21:34.306Z,36.10
2022-11-26T16:24:06.095Z,37.40
2022-11-26T16:27:18.530Z,36.90
2022-11-26T16:29:47.342Z,35.70
2022-11-26T16:32:18.124Z,36.20
2022-11-26T16:34:46.322Z,37.40
2022-11-26T16:37:30.036Z,37.20
2022-11-26T16:40:12.779Z,36.60
2022-11-26T16:42:40.987Z,38.10
2022-11-26T16:45:11.437Z,36.20
2022-11-26T16:47:46.658Z,35.60
2022-11-26T16:50:34.676Z,36.30
2022-11-26T16:53:02.926Z,37.10
2022-11-26T16:55:31.472Z,35.60
2022-11-26T16:58:01.513Z,36.60
2022-11-26T17:00:29.736Z,35.80
2022-11-26T17:02:57.972Z,36.30
2022-11-26T17:05:26.213Z,35.70
2022-11-26T17:08:14.526Z,35.00
2022-11-26T17:10:42.849Z,34.50
2022-11-26T17:13:10.970Z,35.70
2022-11-26T17:15:39.043Z,33.60
2022-11-26T17:18:18.653Z,35.10
2022-11-26T17:20:46.876Z,34.70
2022-11-26T17:23:15.482Z,33.90
2022-11-26T17:25:45.556Z,32.50
2022-11-26T17:28:15.073Z,33.80
2022-11-26T17:30:45.319Z,34.00
2022-11-26T17:33:13.558Z,30.30
2022-11-26T17:35:41.695Z,28.40
2022-11-26T17:38:20.236Z,30.20
2022-11-26T17:40:48.874Z,30.20
2022-11-26T17:43:17.353Z,30.90
2022-11-26T17:45:45.572Z,29.80
2022-11-26T17:48:14.238Z,30.10
2022-11-26T17:50:42.845Z,30.20
2022-11-26T17:53:11.140Z,30.00
2022-11-26T17:55:39.597Z,31.10
2022-11-26T17:58:12.055Z,32.50
2022-11-26T18:00:40.325Z,33.20
2022-11-26T18:03:08.595Z,33.30
2022-11-26T18:05:41.840Z,33.90
2022-11-26T18:08:10.655Z,33.80
2022-11-26T18:10:41.551Z,32.90
2022-11-26T18:13:09.727Z,32.70
2022-11-26T18:15:37.975Z,31.50
2022-11-26T18:18:07.630Z,30.80
2022-11-26T18:20:35.732Z,29.40
2022-11-26T18:23:03.971Z,28.80
2022-11-26T18:25:33.891Z,29.20
2022-11-26T18:28:02.059Z,28.50
2022-11-26T18:30:30.754Z,28.00
2022-11-26T18:32:58.946Z,27.80
2022-11-26T18:35:26.990Z,27.40
2022-11-26T18:37:55.060Z,28.50
2022-11-26T18:40:23.329Z,27.80
2022-11-26T18:42:52.526Z,28.00
2022-11-26T18:45:20.902Z,28.60
2022-11-26T18:47:49.195Z,28.50
2022-11-26T18:50:17.467Z,27.80
2022-11-26T18:52:45.699Z,26.90
2022-11-26T18:55:15.180Z,26.90
2022-11-26T18:57:43.456Z,27.10
2022-11-26T19:00:12.207Z,26.30
2022-11-26T19:02:40.418Z,27.90
2022-11-26T19:05:08.779Z,27.60
2022-11-26T19:07:37.621Z,27.20
2022-11-26T19:10:06.553Z,28.50
2022-11-26T19:12:34.798Z,27.60
2022-11-26T19:15:03.318Z,27.30
2022-11-26T19:17:31.554Z,26.80
2022-11-26T19:19:59.905Z,28.60
2022-11-26T19:22:28.252Z,26.90
2022-11-26T19:24:56.429Z,27.70
2022-11-26T19:27:24.655Z,27.40
2022-11-26T19:29:53.116Z,27.10
2022-11-26T19:32:21.280Z,27.30
2022-11-26T19:35:05.631Z,27.10
2022-11-26T19:37:34.456Z,27.20
2022-11-26T19:40:02.653Z,27.10
2022-11-26T19:42:33.227Z,27.10
2022-11-26T19:45:01.471Z,26.60
2022-11-26T19:47:29.750Z,26.40
2022-11-26T19:49:57.931Z,27.00
2022-11-26T19:52:26.265Z,27.40
2022-11-26T19:54:54.604Z,26.70
2022-11-26T19:57:22.841Z,28.40
2022-11-26T19:59:55.255Z,27.70
2022-11-26T20:02:25.062Z,29.90
2022-11-26T20:04:53.373Z,29.50
2022-11-26T20:07:21.477Z,29.70
2022-11-26T20:09:54.848Z,29.90
2022-11-26T20:12:23.007Z,29.80
2022-11-26T20:14:51.402Z,30.70
2022-11-26T20:17:19.594Z,30.60
2022-11-26T20:19:47.849Z,31.30
2022-11-26T20:22:16.036Z,31.70
2022-11-26T20:24:44.697Z,31.20
2022-11-26T20:27:16.301Z,32.80
2022-11-26T20:29:46.285Z,33.60
2022-11-26T20:32:14.899Z,34.10
2022-11-26T20:34:44.918Z,33.10
2022-11-26T20:37:13.306Z,32.70
2022-11-26T20:39:41.972Z,33.50
2022-11-26T20:42:12.256Z,33.90
2022-11-26T20:44:40.685Z,32.80
2022-11-26T20:47:09.037Z,32.00
2022-11-26T20:49:42.849Z,32.00
2022-11-26T20:52:12.122Z,32.00
2022-11-26T20:54:41.346Z,32.50
2022-11-26T20:57:09.636Z,33.40
2022-11-26T20:59:38.314Z,34.10
2022-11-26T21:02:07.243Z,33.80
2022-11-26T21:04:35.415Z,35.90
2022-11-26T21:07:04.519Z,36.40
2022-11-26T21:09:32.742Z,35.10
2022-11-26T21:12:00.986Z,36.00
2022-11-26T21:14:29.749Z,35.50
2022-11-26T21:16:57.885Z,36.50
2022-11-26T21:19:26.553Z,36.70
2022-11-26T21:21:54.735Z,37.00
2022-11-26T21:24:23.409Z,38.20
2022-11-26T21:26:51.711Z,37.30
2022-11-26T21:29:20.145Z,36.10
2022-11-26T21:31:48.277Z,37.20
2022-11-26T21:34:16.441Z,36.00
2022-11-26T21:36:44.533Z,37.20
2022-11-26T21:39:15.905Z,35.80
2022-11-26T21:41:44.141Z,36.40
2022-11-26T21:44:12.384Z,36.80
2022-11-26T21:46:40.720Z,37.00
2022-11-26T21:49:09.101Z,37.20
2022-11-26T21:51:37.883Z,37.40
2022-11-26T21:54:09.757Z,37.50
2022-11-26T21:56:38.272Z,36.70
2022-11-26T21:59:06.398Z,38.60
2022-11-26T22:01:36.347Z,39.50
2022-11-26T22:04:18.427Z,41.00
2022-11-26T22:06:48.962Z,39.60
2022-11-26T22:09:17.669Z,39.60
2022-11-26T22:11:46.787Z,38.80
2022-11-26T22:14:16.886Z,39.70
2022-11-26T22:16:45.396Z,37.80
2022-11-26T22:19:13.948Z,37.30
2022-11-26T22:21:42.940Z,36.70
2022-11-26T22:24:20.479Z,37.60
2022-11-26T22:26:48.622Z,37.50
2022-11-26T22:29:19.455Z,36.90
2022-11-26T22:31:48.686Z,34.70
2022-11-26T22:34:22.174Z,35.70
2022-11-26T22:36:51.115Z,35.30
2022-11-26T22:39:20.323Z,37.00
2022-11-26T22:41:48.733Z,35.30
2022-11-26T22:44:17.618Z,34.70
2022-11-26T22:46:46.073Z,34.30
2022-11-26T22:49:19.119Z,37.70
2022-11-26T22:51:47.543Z,36.70
2022-11-26T22:54:18.371Z,37.70
2022-11-26T22:56:46.758Z,36.50
2022-11-26T22:59:15.581Z,36.20
2022-11-26T23:01:43.788Z,37.20
2022-11-26T23:04:12.124Z,38.30
2022-11-26T23:06:40.843Z,38.40
2022-11-26T23:09:11.485Z,38.40
2022-11-26T23:11:41.926Z,39.10
2022-11-26T23:14:12.137Z,39.90
2022-11-26T23:16:42.795Z,38.90
2022-11-26T23:19:15.035Z,40.20
2022-11-26T23:21:47.048Z,39.70
2022-11-26T23:24:16.597Z,39.10
2022-11-26T23:26:45.376Z,39.00
2022-11-26T23:29:14.175Z,39.50
2022-11-26T23:31:44.539Z,40.30
2022-11-26T23:34:14.136Z,41.10
2022-11-26T23:36:42.897Z,40.40
2022-11-26T23:39:12.527Z,39.10
2022-11-26T23:41:40.725Z,39.80
2022-11-26T23:44:08.861Z,40.30
2022-11-26T23:46:37.037Z,39.90
2022-11-26T23:49:05.266Z,39.80
2022-11-26T23:51:34.019Z,40.80
2022-11-26T23:54:02.474Z,40.50
2022-11-26T23:56:33.379Z,41.10
2022-11-26T23:59:04.432Z,40.30
